sensor_id;sensor_type;location;lat;lon;timestamp;temperature;humidity
14884;DHT22;7534;50.762;7.000;2023-03-31T00:01:35;12.80;99.90
14884;DHT22;7534;50.762;7.000;2023-03-31T00:04:09;12.70;99.90
14884;DHT22;7534;50.762;7.000;2023-03-31T00:06:39;12.70;99.90
14884;DHT22;7534;50.762;7.000;2023-03-31T00:09:11;12.70;99.90
14884;DHT22;7534;50.762;7.000;2023-03-31T00:11:39;12.60;99.90
14884;DHT22;7534;50.762;7.000;2023-03-31T00:14:06;12.70;99.90
14884;DHT22;7534;50.762;7.000;2023-03-31T00:16:37;12.70;99.90
14884;DHT22;7534;50.762;7.000;2023-03-31T00:19:05;12.60;99.90
14884;DHT22;7534;50.762;7.000;2023-03-31T00:21:35;12.60;99.90
14884;DHT22;7534;50.762;7.000;2023-03-31T00:24:05;12.60;99.90
14884;DHT22;7534;50.762;7.000;2023-03-31T00:26:33;12.50;99.90
14884;DHT22;7534;50.762;7.000;2023-03-31T00:29:00;12.60;99.90
14884;DHT22;7534;50.762;7.000;2023-03-31T00:31:27;12.50;99.90
14884;DHT22;7534;50.762;7.000;2023-03-31T00:33:54;12.50;99.90
14884;DHT22;7534;50.762;7.000;2023-03-31T00:36:21;12.50;99.90
14884;DHT22;7534;50.762;7.000;2023-03-31T00:38:53;12.40;99.90
14884;DHT22;7534;50.762;7.000;2023-03-31T00:41:20;12.30;99.90
14884;DHT22;7534;50.762;7.000;2023-03-31T00:44:18;12.40;99.90
14884;DHT22;7534;50.762;7.000;2023-03-31T00:49:47;12.30;99.90
14884;DHT22;7534;50.762;7.000;2023-03-31T00:52:19;12.30;99.90
14884;DHT22;7534;50.762;7.000;2023-03-31T00:54:52;12.30;99.90
14884;DHT22;7534;50.762;7.000;2023-03-31T00:57:21;12.20;99.90
14884;DHT22;7534;50.762;7.000;2023-03-31T00:59:52;12.10;99.90
14884;DHT22;7534;50.762;7.000;2023-03-31T01:02:24;12.00;99.90
14884;DHT22;7534;50.762;7.000;2023-03-31T01:04:59;11.90;99.90
14884;DHT22;7534;50.762;7.000;2023-03-31T01:07:41;11.90;99.90
14884;DHT22;7534;50.762;7.000;2023-03-31T01:10:10;11.90;99.90
14884;DHT22;7534;50.762;7.000;2023-03-31T01:12:39;11.90;99.90
14884;DHT22;7534;50.762;7.000;2023-03-31T01:15:07;11.90;99.90
14884;DHT22;7534;50.762;7.000;2023-03-31T01:17:33;11.90;99.90
14884;DHT22;7534;50.762;7.000;2023-03-31T01:20:49;11.90;99.90
14884;DHT22;7534;50.762;7.000;2023-03-31T01:26:44;11.80;99.90
14884;DHT22;7534;50.762;7.000;2023-03-31T01:29:29;11.70;99.90
14884;DHT22;7534;50.762;7.000;2023-03-31T01:40:18;11.70;99.90
14884;DHT22;7534;50.762;7.000;2023-03-31T01:45:44;11.90;99.90
14884;DHT22;7534;50.762;7.000;2023-03-31T01:48:14;11.90;99.90
14884;DHT22;7534;50.762;7.000;2023-03-31T01:50:58;11.90;99.90
14884;DHT22;7534;50.762;7.000;2023-03-31T01:53:39;12.10;99.90
14884;DHT22;7534;50.762;7.000;2023-03-31T01:56:27;12.20;99.90
14884;DHT22;7534;50.762;7.000;2023-03-31T02:02:08;12.40;99.90
14884;DHT22;7534;50.762;7.000;2023-03-31T02:04:46;12.40;99.90
14884;DHT22;7534;50.762;7.000;2023-03-31T02:07:22;12.50;99.90
14884;DHT22;7534;50.762;7.000;2023-03-31T02:09:58;12.50;99.90
14884;DHT22;7534;50.762;7.000;2023-03-31T02:12:29;12.40;99.90
14884;DHT22;7534;50.762;7.000;2023-03-31T02:14:59;12.40;99.90
14884;DHT22;7534;50.762;7.000;2023-03-31T02:17:30;12.30;99.90
14884;DHT22;7534;50.762;7.000;2023-03-31T02:20:01;12.30;99.90
14884;DHT22;7534;50.762;7.000;2023-03-31T02:22:32;12.20;99.90
14884;DHT22;7534;50.762;7.000;2023-03-31T02:25:04;12.20;99.90
14884;DHT22;7534;50.762;7.000;2023-03-31T02:27:35;12.20;99.90
14884;DHT22;7534;50.762;7.000;2023-03-31T02:30:05;12.10;99.90
14884;DHT22;7534;50.762;7.000;2023-03-31T02:32:43;12.20;99.90
14884;DHT22;7534;50.762;7.000;2023-03-31T02:35:13;12.20;99.90
14884;DHT22;7534;50.762;7.000;2023-03-31T02:37:42;12.10;99.90
14884;DHT22;7534;50.762;7.000;2023-03-31T02:40:13;12.10;99.90
14884;DHT22;7534;50.762;7.000;2023-03-31T02:42:42;12.10;99.90
14884;DHT22;7534;50.762;7.000;2023-03-31T02:45:38;12.10;99.90
14884;DHT22;7534;50.762;7.000;2023-03-31T02:48:09;12.00;99.90
14884;DHT22;7534;50.762;7.000;2023-03-31T02:51:09;11.80;99.90
14884;DHT22;7534;50.762;7.000;2023-03-31T02:54:14;11.80;99.90
14884;DHT22;7534;50.762;7.000;2023-03-31T02:57:36;11.80;99.90
14884;DHT22;7534;50.762;7.000;2023-03-31T03:03:22;11.70;99.90
14884;DHT22;7534;50.762;7.000;2023-03-31T03:12:32;11.60;99.90
14884;DHT22;7534;50.762;7.000;2023-03-31T03:15:19;11.60;99.90
14884;DHT22;7534;50.762;7.000;2023-03-31T03:17:49;11.70;99.90
14884;DHT22;7534;50.762;7.000;2023-03-31T03:20:18;11.60;99.90
14884;DHT22;7534;50.762;7.000;2023-03-31T03:22:45;11.70;99.90
14884;DHT22;7534;50.762;7.000;2023-03-31T03:25:12;11.70;99.90
14884;DHT22;7534;50.762;7.000;2023-03-31T03:27:41;11.70;99.90
14884;DHT22;7534;50.762;7.000;2023-03-31T03:30:09;11.60;99.90
14884;DHT22;7534;50.762;7.000;2023-03-31T03:32:37;11.70;99.90
14884;DHT22;7534;50.762;7.000;2023-03-31T03:35:04;11.60;99.90
14884;DHT22;7534;50.762;7.000;2023-03-31T03:37:31;11.50;99.90
14884;DHT22;7534;50.762;7.000;2023-03-31T03:39:57;11.60;99.90
14884;DHT22;7534;50.762;7.000;2023-03-31T03:42:23;11.60;99.90
14884;DHT22;7534;50.762;7.000;2023-03-31T03:44:49;11.70;99.90
14884;DHT22;7534;50.762;7.000;2023-03-31T03:47:14;11.70;99.90
14884;DHT22;7534;50.762;7.000;2023-03-31T03:49:40;11.70;99.90
14884;DHT22;7534;50.762;7.000;2023-03-31T03:52:06;11.80;99.90
14884;DHT22;7534;50.762;7.000;2023-03-31T03:54:33;11.70;99.90
14884;DHT22;7534;50.762;7.000;2023-03-31T03:56:58;11.60;99.90
14884;DHT22;7534;50.762;7.000;2023-03-31T03:59:24;11.60;99.90
14884;DHT22;7534;50.762;7.000;2023-03-31T04:01:50;11.70;99.90
14884;DHT22;7534;50.762;7.000;2023-03-31T04:04:17;11.80;99.90
14884;DHT22;7534;50.762;7.000;2023-03-31T04:06:43;11.70;99.90
14884;DHT22;7534;50.762;7.000;2023-03-31T04:09:08;11.70;99.90
14884;DHT22;7534;50.762;7.000;2023-03-31T04:11:34;11.70;99.90
14884;DHT22;7534;50.762;7.000;2023-03-31T04:14:00;11.80;99.90
14884;DHT22;7534;50.762;7.000;2023-03-31T04:16:25;11.90;99.90
14884;DHT22;7534;50.762;7.000;2023-03-31T04:18:52;11.90;99.90
14884;DHT22;7534;50.762;7.000;2023-03-31T04:21:21;11.80;99.90
14884;DHT22;7534;50.762;7.000;2023-03-31T04:23:51;11.80;99.90
14884;DHT22;7534;50.762;7.000;2023-03-31T04:26:30;11.70;99.90
14884;DHT22;7534;50.762;7.000;2023-03-31T04:29:07;11.70;99.90
14884;DHT22;7534;50.762;7.000;2023-03-31T04:31:38;11.70;99.90
14884;DHT22;7534;50.762;7.000;2023-03-31T04:34:07;11.70;99.90
14884;DHT22;7534;50.762;7.000;2023-03-31T04:36:38;11.70;99.90
14884;DHT22;7534;50.762;7.000;2023-03-31T04:39:07;11.70;99.90
14884;DHT22;7534;50.762;7.000;2023-03-31T04:41:36;11.60;99.90
14884;DHT22;7534;50.762;7.000;2023-03-31T04:44:02;11.60;99.90
14884;DHT22;7534;50.762;7.000;2023-03-31T04:46:28;11.60;99.90
14884;DHT22;7534;50.762;7.000;2023-03-31T04:48:53;11.60;99.90
14884;DHT22;7534;50.762;7.000;2023-03-31T04:51:19;11.60;99.90
14884;DHT22;7534;50.762;7.000;2023-03-31T04:53:45;11.70;99.90
14884;DHT22;7534;50.762;7.000;2023-03-31T04:56:11;11.60;99.90
14884;DHT22;7534;50.762;7.000;2023-03-31T04:58:41;11.60;99.90
14884;DHT22;7534;50.762;7.000;2023-03-31T05:01:07;11.70;99.90
14884;DHT22;7534;50.762;7.000;2023-03-31T05:03:33;11.80;99.90
14884;DHT22;7534;50.762;7.000;2023-03-31T05:05:58;11.80;99.90
14884;DHT22;7534;50.762;7.000;2023-03-31T05:08:25;11.80;99.90
14884;DHT22;7534;50.762;7.000;2023-03-31T05:10:53;11.70;99.90
14884;DHT22;7534;50.762;7.000;2023-03-31T05:13:18;11.60;99.90
14884;DHT22;7534;50.762;7.000;2023-03-31T05:15:44;11.70;99.90
14884;DHT22;7534;50.762;7.000;2023-03-31T05:18:12;11.70;99.90
14884;DHT22;7534;50.762;7.000;2023-03-31T05:20:38;11.70;99.90
14884;DHT22;7534;50.762;7.000;2023-03-31T05:23:03;11.80;99.90
14884;DHT22;7534;50.762;7.000;2023-03-31T05:25:29;11.80;99.90
14884;DHT22;7534;50.762;7.000;2023-03-31T05:27:57;11.80;99.90
14884;DHT22;7534;50.762;7.000;2023-03-31T05:30:30;11.80;99.90
14884;DHT22;7534;50.762;7.000;2023-03-31T05:32:57;11.80;99.90
14884;DHT22;7534;50.762;7.000;2023-03-31T05:35:22;11.90;99.90
14884;DHT22;7534;50.762;7.000;2023-03-31T05:37:48;11.90;99.90
14884;DHT22;7534;50.762;7.000;2023-03-31T05:40:14;12.00;99.90
14884;DHT22;7534;50.762;7.000;2023-03-31T05:42:41;12.00;99.90
14884;DHT22;7534;50.762;7.000;2023-03-31T05:45:07;12.00;99.90
14884;DHT22;7534;50.762;7.000;2023-03-31T05:47:33;12.00;99.90
14884;DHT22;7534;50.762;7.000;2023-03-31T05:49:59;12.10;99.90
14884;DHT22;7534;50.762;7.000;2023-03-31T05:52:25;12.00;99.90
14884;DHT22;7534;50.762;7.000;2023-03-31T05:54:50;12.00;99.90
14884;DHT22;7534;50.762;7.000;2023-03-31T05:57:16;12.10;99.90
14884;DHT22;7534;50.762;7.000;2023-03-31T05:59:43;12.10;99.90
14884;DHT22;7534;50.762;7.000;2023-03-31T06:02:12;12.10;99.90
14884;DHT22;7534;50.762;7.000;2023-03-31T06:04:38;12.10;99.90
14884;DHT22;7534;50.762;7.000;2023-03-31T06:07:04;12.10;99.90
14884;DHT22;7534;50.762;7.000;2023-03-31T06:09:30;12.00;99.90
14884;DHT22;7534;50.762;7.000;2023-03-31T06:11:56;12.10;99.90
14884;DHT22;7534;50.762;7.000;2023-03-31T06:14:22;12.10;99.90
14884;DHT22;7534;50.762;7.000;2023-03-31T06:16:47;12.10;99.90
14884;DHT22;7534;50.762;7.000;2023-03-31T06:19:13;12.20;99.90
14884;DHT22;7534;50.762;7.000;2023-03-31T06:21:39;12.20;99.90
14884;DHT22;7534;50.762;7.000;2023-03-31T06:24:05;12.20;99.90
14884;DHT22;7534;50.762;7.000;2023-03-31T06:26:33;12.30;99.90
14884;DHT22;7534;50.762;7.000;2023-03-31T06:28:59;12.40;99.90
14884;DHT22;7534;50.762;7.000;2023-03-31T06:31:25;12.70;99.90
14884;DHT22;7534;50.762;7.000;2023-03-31T06:33:51;12.60;99.90
14884;DHT22;7534;50.762;7.000;2023-03-31T06:36:19;12.60;99.90
14884;DHT22;7534;50.762;7.000;2023-03-31T06:38:47;12.80;99.90
14884;DHT22;7534;50.762;7.000;2023-03-31T06:41:15;12.80;99.90
14884;DHT22;7534;50.762;7.000;2023-03-31T06:43:42;12.90;99.90
14884;DHT22;7534;50.762;7.000;2023-03-31T06:46:09;12.80;99.90
14884;DHT22;7534;50.762;7.000;2023-03-31T06:48:35;12.60;99.90
14884;DHT22;7534;50.762;7.000;2023-03-31T06:51:03;12.60;99.90
14884;DHT22;7534;50.762;7.000;2023-03-31T06:53:30;12.70;99.90
14884;DHT22;7534;50.762;7.000;2023-03-31T06:55:56;12.80;99.90
14884;DHT22;7534;50.762;7.000;2023-03-31T06:58:23;13.00;99.90
14884;DHT22;7534;50.762;7.000;2023-03-31T07:00:49;12.90;99.90
14884;DHT22;7534;50.762;7.000;2023-03-31T07:03:15;13.00;99.90
14884;DHT22;7534;50.762;7.000;2023-03-31T07:05:50;13.10;99.90
14884;DHT22;7534;50.762;7.000;2023-03-31T07:08:18;13.30;99.90
14884;DHT22;7534;50.762;7.000;2023-03-31T07:10:44;13.70;99.90
14884;DHT22;7534;50.762;7.000;2023-03-31T07:13:17;14.10;99.70
14884;DHT22;7534;50.762;7.000;2023-03-31T07:15:45;14.50;98.80
14884;DHT22;7534;50.762;7.000;2023-03-31T07:18:12;14.80;98.40
14884;DHT22;7534;50.762;7.000;2023-03-31T07:20:40;14.90;97.20
14884;DHT22;7534;50.762;7.000;2023-03-31T07:23:06;15.00;97.80
14884;DHT22;7534;50.762;7.000;2023-03-31T07:25:33;14.80;97.20
14884;DHT22;7534;50.762;7.000;2023-03-31T07:28:00;14.60;97.50
14884;DHT22;7534;50.762;7.000;2023-03-31T07:30:27;14.70;97.70
14884;DHT22;7534;50.762;7.000;2023-03-31T07:32:53;14.90;97.90
14884;DHT22;7534;50.762;7.000;2023-03-31T07:35:19;15.20;96.90
14884;DHT22;7534;50.762;7.000;2023-03-31T07:37:48;15.60;96.50
14884;DHT22;7534;50.762;7.000;2023-03-31T07:40:18;16.00;95.90
14884;DHT22;7534;50.762;7.000;2023-03-31T07:42:46;16.40;94.70
14884;DHT22;7534;50.762;7.000;2023-03-31T07:45:14;17.10;94.20
14884;DHT22;7534;50.762;7.000;2023-03-31T07:47:41;17.40;93.20
14884;DHT22;7534;50.762;7.000;2023-03-31T07:50:08;17.10;93.30
14884;DHT22;7534;50.762;7.000;2023-03-31T07:52:34;17.00;93.40
14884;DHT22;7534;50.762;7.000;2023-03-31T07:55:00;16.90;93.50
14884;DHT22;7534;50.762;7.000;2023-03-31T07:57:26;16.60;94.30
14884;DHT22;7534;50.762;7.000;2023-03-31T07:59:51;16.60;94.40
14884;DHT22;7534;50.762;7.000;2023-03-31T08:02:17;16.60;94.50
14884;DHT22;7534;50.762;7.000;2023-03-31T08:04:44;16.60;94.40
14884;DHT22;7534;50.762;7.000;2023-03-31T08:07:12;16.50;94.40
14884;DHT22;7534;50.762;7.000;2023-03-31T08:09:41;16.40;94.70
14884;DHT22;7534;50.762;7.000;2023-03-31T08:12:09;16.50;94.60
14884;DHT22;7534;50.762;7.000;2023-03-31T08:14:34;16.80;94.30
14884;DHT22;7534;50.762;7.000;2023-03-31T08:17:00;17.20;93.80
14884;DHT22;7534;50.762;7.000;2023-03-31T08:19:26;17.30;93.40
14884;DHT22;7534;50.762;7.000;2023-03-31T08:21:52;17.00;93.50
14884;DHT22;7534;50.762;7.000;2023-03-31T08:24:19;16.70;93.70
14884;DHT22;7534;50.762;7.000;2023-03-31T08:26:45;16.10;94.20
14884;DHT22;7534;50.762;7.000;2023-03-31T08:29:11;15.80;95.10
14884;DHT22;7534;50.762;7.000;2023-03-31T08:31:37;15.60;95.10
14884;DHT22;7534;50.762;7.000;2023-03-31T08:34:03;15.50;95.50
14884;DHT22;7534;50.762;7.000;2023-03-31T08:36:30;15.50;95.30
14884;DHT22;7534;50.762;7.000;2023-03-31T08:38:56;15.70;94.90
14884;DHT22;7534;50.762;7.000;2023-03-31T08:44:36;16.50;94.30
14884;DHT22;7534;50.762;7.000;2023-03-31T08:47:20;17.10;93.80
14884;DHT22;7534;50.762;7.000;2023-03-31T08:49:58;17.70;92.50
14884;DHT22;7534;50.762;7.000;2023-03-31T08:52:35;18.30;91.10
14884;DHT22;7534;50.762;7.000;2023-03-31T08:55:11;18.50;91.40
14884;DHT22;7534;50.762;7.000;2023-03-31T09:02:03;18.50;90.70
14884;DHT22;7534;50.762;7.000;2023-03-31T09:04:34;18.60;91.60
14884;DHT22;7534;50.762;7.000;2023-03-31T09:10:30;20.00;89.20
14884;DHT22;7534;50.762;7.000;2023-03-31T09:18:49;19.50;88.40
14884;DHT22;7534;50.762;7.000;2023-03-31T09:21:39;20.00;88.20
14884;DHT22;7534;50.762;7.000;2023-03-31T09:24:18;19.50;86.50
14884;DHT22;7534;50.762;7.000;2023-03-31T09:26:57;19.10;89.00
14884;DHT22;7534;50.762;7.000;2023-03-31T09:29:48;19.10;88.90
14884;DHT22;7534;50.762;7.000;2023-03-31T09:32:23;19.20;89.30
14884;DHT22;7534;50.762;7.000;2023-03-31T09:34:56;19.60;88.60
14884;DHT22;7534;50.762;7.000;2023-03-31T09:37:29;19.80;86.40
14884;DHT22;7534;50.762;7.000;2023-03-31T09:39:59;19.50;85.40
14884;DHT22;7534;50.762;7.000;2023-03-31T09:42:26;18.90;86.10
14884;DHT22;7534;50.762;7.000;2023-03-31T09:44:53;18.80;88.20
14884;DHT22;7534;50.762;7.000;2023-03-31T09:47:43;18.80;87.70
14884;DHT22;7534;50.762;7.000;2023-03-31T09:50:15;18.50;87.70
14884;DHT22;7534;50.762;7.000;2023-03-31T09:53:13;18.90;89.30
14884;DHT22;7534;50.762;7.000;2023-03-31T09:56:00;18.60;87.10
14884;DHT22;7534;50.762;7.000;2023-03-31T09:58:28;18.90;87.10
14884;DHT22;7534;50.762;7.000;2023-03-31T10:01:00;19.00;86.20
14884;DHT22;7534;50.762;7.000;2023-03-31T10:03:29;19.10;86.90
14884;DHT22;7534;50.762;7.000;2023-03-31T10:06:02;18.80;87.20
14884;DHT22;7534;50.762;7.000;2023-03-31T10:08:56;18.50;87.40
14884;DHT22;7534;50.762;7.000;2023-03-31T10:11:25;18.20;90.20
14884;DHT22;7534;50.762;7.000;2023-03-31T10:13:52;17.80;90.60
14884;DHT22;7534;50.762;7.000;2023-03-31T10:16:58;17.60;90.40
14884;DHT22;7534;50.762;7.000;2023-03-31T10:19:31;17.40;90.40
14884;DHT22;7534;50.762;7.000;2023-03-31T10:22:01;17.00;91.00
14884;DHT22;7534;50.762;7.000;2023-03-31T10:24:40;16.80;91.50
14884;DHT22;7534;50.762;7.000;2023-03-31T10:27:24;16.30;91.60
14884;DHT22;7534;50.762;7.000;2023-03-31T10:29:57;16.20;93.30
14884;DHT22;7534;50.762;7.000;2023-03-31T10:32:30;16.20;93.60
14884;DHT22;7534;50.762;7.000;2023-03-31T10:35:33;16.20;94.80
14884;DHT22;7534;50.762;7.000;2023-03-31T10:38:23;16.20;95.20
14884;DHT22;7534;50.762;7.000;2023-03-31T10:40:57;16.00;95.60
14884;DHT22;7534;50.762;7.000;2023-03-31T10:43:29;15.30;98.50
14884;DHT22;7534;50.762;7.000;2023-03-31T10:46:08;14.90;99.90
14884;DHT22;7534;50.762;7.000;2023-03-31T10:48:38;14.80;99.90
14884;DHT22;7534;50.762;7.000;2023-03-31T10:51:17;14.70;99.90
14884;DHT22;7534;50.762;7.000;2023-03-31T10:53:51;14.40;99.90
14884;DHT22;7534;50.762;7.000;2023-03-31T10:56:58;14.00;99.90
14884;DHT22;7534;50.762;7.000;2023-03-31T11:03:06;13.70;99.90
14884;DHT22;7534;50.762;7.000;2023-03-31T11:05:58;14.10;99.90
14884;DHT22;7534;50.762;7.000;2023-03-31T11:20:40;13.70;99.90
14884;DHT22;7534;50.762;7.000;2023-03-31T11:23:25;13.80;99.90
14884;DHT22;7534;50.762;7.000;2023-03-31T11:26:37;14.10;99.90
14884;DHT22;7534;50.762;7.000;2023-03-31T11:43:49;16.80;98.10
14884;DHT22;7534;50.762;7.000;2023-03-31T11:46:35;16.90;98.10
14884;DHT22;7534;50.762;7.000;2023-03-31T11:49:22;17.00;97.90
14884;DHT22;7534;50.762;7.000;2023-03-31T11:52:05;16.80;97.70
14884;DHT22;7534;50.762;7.000;2023-03-31T11:54:42;16.90;97.60
14884;DHT22;7534;50.762;7.000;2023-03-31T11:57:20;17.00;97.60
14884;DHT22;7534;50.762;7.000;2023-03-31T11:59:59;16.80;98.00
14884;DHT22;7534;50.762;7.000;2023-03-31T12:05:30;16.30;95.70
14884;DHT22;7534;50.762;7.000;2023-03-31T12:08:11;15.80;95.20
14884;DHT22;7534;50.762;7.000;2023-03-31T12:11:01;15.50;94.60
14884;DHT22;7534;50.762;7.000;2023-03-31T12:16:41;15.50;94.60
14884;DHT22;7534;50.762;7.000;2023-03-31T12:19:41;15.90;95.00
14884;DHT22;7534;50.762;7.000;2023-03-31T12:25:15;16.40;93.90
14884;DHT22;7534;50.762;7.000;2023-03-31T12:27:48;16.50;94.20
14884;DHT22;7534;50.762;7.000;2023-03-31T12:30:33;16.80;94.40
14884;DHT22;7534;50.762;7.000;2023-03-31T12:48:03;17.70;93.00
14884;DHT22;7534;50.762;7.000;2023-03-31T12:56:24;18.50;92.50
14884;DHT22;7534;50.762;7.000;2023-03-31T12:58:50;19.00;92.20
14884;DHT22;7534;50.762;7.000;2023-03-31T13:01:17;19.10;90.80
14884;DHT22;7534;50.762;7.000;2023-03-31T13:08:59;18.60;91.40
14884;DHT22;7534;50.762;7.000;2023-03-31T13:11:35;18.20;92.50
14884;DHT22;7534;50.762;7.000;2023-03-31T13:14:19;17.80;93.40
14884;DHT22;7534;50.762;7.000;2023-03-31T13:16:51;17.10;96.80
14884;DHT22;7534;50.762;7.000;2023-03-31T13:19:32;15.90;98.40
14884;DHT22;7534;50.762;7.000;2023-03-31T13:22:03;15.30;99.70
14884;DHT22;7534;50.762;7.000;2023-03-31T13:24:31;15.20;99.90
14884;DHT22;7534;50.762;7.000;2023-03-31T13:27:29;15.20;99.90
14884;DHT22;7534;50.762;7.000;2023-03-31T13:29:58;15.40;99.90
14884;DHT22;7534;50.762;7.000;2023-03-31T13:32:26;15.80;99.70
14884;DHT22;7534;50.762;7.000;2023-03-31T13:38:12;16.30;97.70
14884;DHT22;7534;50.762;7.000;2023-03-31T13:40:55;16.50;97.30
14884;DHT22;7534;50.762;7.000;2023-03-31T13:43:51;16.90;96.90
14884;DHT22;7534;50.762;7.000;2023-03-31T13:49:28;17.30;96.20
14884;DHT22;7534;50.762;7.000;2023-03-31T13:52:10;17.60;94.60
14884;DHT22;7534;50.762;7.000;2023-03-31T14:00:29;17.10;94.00
14884;DHT22;7534;50.762;7.000;2023-03-31T14:08:54;16.80;92.70
14884;DHT22;7534;50.762;7.000;2023-03-31T14:11:28;16.80;92.10
14884;DHT22;7534;50.762;7.000;2023-03-31T14:17:01;16.30;92.70
14884;DHT22;7534;50.762;7.000;2023-03-31T14:25:47;15.90;94.20
14884;DHT22;7534;50.762;7.000;2023-03-31T14:31:52;16.20;94.30
14884;DHT22;7534;50.762;7.000;2023-03-31T14:37:30;16.90;93.00
14884;DHT22;7534;50.762;7.000;2023-03-31T14:39:56;17.00;93.90
14884;DHT22;7534;50.762;7.000;2023-03-31T14:42:38;17.10;92.00
14884;DHT22;7534;50.762;7.000;2023-03-31T14:45:20;16.90;92.40
14884;DHT22;7534;50.762;7.000;2023-03-31T14:47:58;16.90;91.90
14884;DHT22;7534;50.762;7.000;2023-03-31T14:50:45;16.70;91.70
14884;DHT22;7534;50.762;7.000;2023-03-31T14:53:15;16.80;91.80
14884;DHT22;7534;50.762;7.000;2023-03-31T14:55:44;17.00;91.90
14884;DHT22;7534;50.762;7.000;2023-03-31T14:58:15;16.90;91.60
14884;DHT22;7534;50.762;7.000;2023-03-31T15:00:51;17.00;92.00
14884;DHT22;7534;50.762;7.000;2023-03-31T15:03:18;16.90;91.90
14884;DHT22;7534;50.762;7.000;2023-03-31T15:05:45;16.90;91.90
14884;DHT22;7534;50.762;7.000;2023-03-31T15:08:17;16.60;91.80
14884;DHT22;7534;50.762;7.000;2023-03-31T15:10:52;16.40;92.00
14884;DHT22;7534;50.762;7.000;2023-03-31T15:13:32;16.40;92.50
14884;DHT22;7534;50.762;7.000;2023-03-31T15:16:18;16.40;92.80
14884;DHT22;7534;50.762;7.000;2023-03-31T15:18:56;16.00;92.20
14884;DHT22;7534;50.762;7.000;2023-03-31T15:21:26;15.90;92.40
14884;DHT22;7534;50.762;7.000;2023-03-31T15:23:55;15.70;93.00
14884;DHT22;7534;50.762;7.000;2023-03-31T15:26:28;15.50;92.50
14884;DHT22;7534;50.762;7.000;2023-03-31T15:29:17;15.40;93.20
14884;DHT22;7534;50.762;7.000;2023-03-31T15:31:46;15.40;93.20
14884;DHT22;7534;50.762;7.000;2023-03-31T15:34:24;15.40;93.20
14884;DHT22;7534;50.762;7.000;2023-03-31T15:36:55;15.40;93.20
14884;DHT22;7534;50.762;7.000;2023-03-31T15:39:23;15.50;93.80
14884;DHT22;7534;50.762;7.000;2023-03-31T15:41:53;15.40;93.60
14884;DHT22;7534;50.762;7.000;2023-03-31T15:44:37;15.30;93.70
14884;DHT22;7534;50.762;7.000;2023-03-31T15:47:18;15.30;93.40
14884;DHT22;7534;50.762;7.000;2023-03-31T15:50:11;15.30;94.00
14884;DHT22;7534;50.762;7.000;2023-03-31T15:52:46;15.20;93.50
14884;DHT22;7534;50.762;7.000;2023-03-31T15:55:54;15.30;94.20
14884;DHT22;7534;50.762;7.000;2023-03-31T15:58:24;15.20;93.80
14884;DHT22;7534;50.762;7.000;2023-03-31T16:01:18;15.10;93.80
14884;DHT22;7534;50.762;7.000;2023-03-31T16:03:45;15.20;94.40
14884;DHT22;7534;50.762;7.000;2023-03-31T16:06:25;15.20;94.00
14884;DHT22;7534;50.762;7.000;2023-03-31T16:11:58;14.90;94.50
14884;DHT22;7534;50.762;7.000;2023-03-31T16:15:06;15.00;95.00
14884;DHT22;7534;50.762;7.000;2023-03-31T16:17:53;15.00;94.40
14884;DHT22;7534;50.762;7.000;2023-03-31T16:20:39;14.90;94.50
14884;DHT22;7534;50.762;7.000;2023-03-31T16:23:20;15.00;94.70
14884;DHT22;7534;50.762;7.000;2023-03-31T16:25:48;15.10;94.80
14884;DHT22;7534;50.762;7.000;2023-03-31T16:28:29;15.20;94.30
14884;DHT22;7534;50.762;7.000;2023-03-31T16:30:58;15.10;94.70
14884;DHT22;7534;50.762;7.000;2023-03-31T16:33:27;15.10;94.90
14884;DHT22;7534;50.762;7.000;2023-03-31T16:35:55;15.10;94.30
14884;DHT22;7534;50.762;7.000;2023-03-31T16:38:25;15.00;95.20
14884;DHT22;7534;50.762;7.000;2023-03-31T16:40:53;14.90;94.60
14884;DHT22;7534;50.762;7.000;2023-03-31T16:43:24;14.80;95.20
14884;DHT22;7534;50.762;7.000;2023-03-31T16:45:54;14.80;95.10
14884;DHT22;7534;50.762;7.000;2023-03-31T16:48:23;14.80;95.20
14884;DHT22;7534;50.762;7.000;2023-03-31T16:50:55;14.90;95.10
14884;DHT22;7534;50.762;7.000;2023-03-31T16:53:33;14.80;95.30
14884;DHT22;7534;50.762;7.000;2023-03-31T16:56:01;14.70;96.10
14884;DHT22;7534;50.762;7.000;2023-03-31T16:58:28;14.50;95.20
14884;DHT22;7534;50.762;7.000;2023-03-31T17:00:55;14.40;95.50
14884;DHT22;7534;50.762;7.000;2023-03-31T17:03:23;14.30;95.60
14884;DHT22;7534;50.762;7.000;2023-03-31T17:05:52;14.10;95.50
14884;DHT22;7534;50.762;7.000;2023-03-31T17:08:20;14.20;96.00
14884;DHT22;7534;50.762;7.000;2023-03-31T17:11:14;14.20;95.80
14884;DHT22;7534;50.762;7.000;2023-03-31T17:13:41;14.20;95.70
14884;DHT22;7534;50.762;7.000;2023-03-31T17:16:08;14.10;95.90
14884;DHT22;7534;50.762;7.000;2023-03-31T17:18:35;14.10;96.00
14884;DHT22;7534;50.762;7.000;2023-03-31T17:21:08;14.10;96.10
14884;DHT22;7534;50.762;7.000;2023-03-31T17:23:37;13.90;96.00
14884;DHT22;7534;50.762;7.000;2023-03-31T17:26:04;13.90;96.30
14884;DHT22;7534;50.762;7.000;2023-03-31T17:28:31;14.10;96.50
14884;DHT22;7534;50.762;7.000;2023-03-31T17:30:57;14.10;96.10
14884;DHT22;7534;50.762;7.000;2023-03-31T17:33:24;14.00;96.00
14884;DHT22;7534;50.762;7.000;2023-03-31T17:35:54;13.90;96.10
14884;DHT22;7534;50.762;7.000;2023-03-31T17:38:24;13.90;96.00
14884;DHT22;7534;50.762;7.000;2023-03-31T17:40:50;13.90;96.30
14884;DHT22;7534;50.762;7.000;2023-03-31T17:43:16;13.80;96.50
14884;DHT22;7534;50.762;7.000;2023-03-31T17:45:42;13.80;96.50
14884;DHT22;7534;50.762;7.000;2023-03-31T17:48:08;13.80;96.60
14884;DHT22;7534;50.762;7.000;2023-03-31T17:50:34;13.80;96.20
14884;DHT22;7534;50.762;7.000;2023-03-31T17:53:01;13.60;96.00
14884;DHT22;7534;50.762;7.000;2023-03-31T17:55:36;13.60;96.70
14884;DHT22;7534;50.762;7.000;2023-03-31T17:58:04;13.50;96.20
14884;DHT22;7534;50.762;7.000;2023-03-31T18:00:31;13.40;96.90
14884;DHT22;7534;50.762;7.000;2023-03-31T18:02:59;13.40;96.30
14884;DHT22;7534;50.762;7.000;2023-03-31T18:05:25;13.40;96.60
14884;DHT22;7534;50.762;7.000;2023-03-31T18:07:51;13.50;96.60
14884;DHT22;7534;50.762;7.000;2023-03-31T18:10:18;13.50;96.50
14884;DHT22;7534;50.762;7.000;2023-03-31T18:12:44;13.40;96.80
14884;DHT22;7534;50.762;7.000;2023-03-31T18:15:11;13.40;96.60
14884;DHT22;7534;50.762;7.000;2023-03-31T18:17:36;13.40;96.40
14884;DHT22;7534;50.762;7.000;2023-03-31T18:20:03;13.40;96.00
14884;DHT22;7534;50.762;7.000;2023-03-31T18:22:30;13.40;95.70
14884;DHT22;7534;50.762;7.000;2023-03-31T18:24:57;13.40;96.00
14884;DHT22;7534;50.762;7.000;2023-03-31T18:27:22;13.40;96.00
14884;DHT22;7534;50.762;7.000;2023-03-31T18:29:48;13.40;95.90
14884;DHT22;7534;50.762;7.000;2023-03-31T18:32:14;13.50;95.90
14884;DHT22;7534;50.762;7.000;2023-03-31T18:34:40;13.50;95.50
14884;DHT22;7534;50.762;7.000;2023-03-31T18:37:06;13.50;95.80
14884;DHT22;7534;50.762;7.000;2023-03-31T18:39:32;13.50;95.90
14884;DHT22;7534;50.762;7.000;2023-03-31T18:41:58;13.50;95.80
14884;DHT22;7534;50.762;7.000;2023-03-31T18:44:24;13.40;96.10
14884;DHT22;7534;50.762;7.000;2023-03-31T18:46:49;13.40;96.10